Time;durP1;ratioP1;P1;durP2;ratioP2;P2;SDS_P1;SDS_P2;PMS_P1;PMS_P2;Temp;Humidity;BMP_temperature;BMP_pressure;BME280_temperature;BME280_humidity;BME280_pressure;Samples;Min_cycle;Max_cycle;Signal;HPM_P1;HPM_P2
2021/09/20 00:01:40;;;;;;;5.25;4.63;;;13.90;99.90;;;;;;5015958;28;20028;-78
2021/09/20 00:04:06;;;;;;;7.55;5.13;;;13.80;99.90;;;;;;5017118;28;20030;-77
2021/09/20 00:06:32;;;;;;;4.90;4.35;;;13.90;99.90;;;;;;5017466;28;20038;-77
2021/09/20 00:08:57;;;;;;;5.00;4.60;;;13.90;99.90;;;;;;5013655;28;20026;-77
2021/09/20 00:11:23;;;;;;;5.35;4.32;;;13.80;99.90;;;;;;5017703;28;20070;-77
2021/09/20 00:13:48;;;;;;;5.13;4.70;;;13.80;99.90;;;;;;5048892;28;20026;-78
2021/09/20 00:16:14;;;;;;;5.35;4.60;;;13.80;99.90;;;;;;5017043;28;20022;-78
2021/09/20 00:18:40;;;;;;;5.13;4.68;;;13.80;99.90;;;;;;5010746;28;20383;-79
2021/09/20 00:21:05;;;;;;;5.07;4.65;;;13.80;99.90;;;;;;5017298;28;20252;-77
2021/09/20 00:23:31;;;;;;;5.82;4.95;;;13.80;99.90;;;;;;5016789;28;20030;-78
2021/09/20 00:25:58;;;;;;;5.45;5.05;;;13.80;99.90;;;;;;5012558;28;20061;-78
2021/09/20 00:28:25;;;;;;;5.18;4.68;;;13.80;99.90;;;;;;5016248;28;20189;-77
2021/09/20 00:30:50;;;;;;;6.00;5.32;;;13.80;99.90;;;;;;5014514;28;20481;-77
2021/09/20 00:33:16;;;;;;;8.77;5.72;;;13.80;99.90;;;;;;5017827;28;20077;-80
2021/09/20 00:35:41;;;;;;;5.10;4.63;;;13.90;99.90;;;;;;5018053;28;20478;-80
2021/09/20 00:38:07;;;;;;;4.60;4.20;;;13.90;99.90;;;;;;5016598;28;20083;-79
2021/09/20 00:40:33;;;;;;;5.53;4.95;;;13.90;99.90;;;;;;5016990;28;20088;-79
2021/09/20 00:42:58;;;;;;;5.22;4.70;;;13.90;99.90;;;;;;5017260;28;20026;-79
2021/09/20 00:45:24;;;;;;;5.28;4.78;;;14.10;99.90;;;;;;5018330;28;20549;-80
2021/09/20 00:47:50;;;;;;;5.80;4.43;;;14.10;99.90;;;;;;5016263;28;20044;-79
2021/09/20 00:50:15;;;;;;;5.18;4.68;;;14.10;99.90;;;;;;5017726;28;20029;-80
2021/09/20 00:52:41;;;;;;;6.88;4.40;;;14.00;99.90;;;;;;5017676;28;20022;-79
2021/09/20 00:55:08;;;;;;;5.63;4.50;;;14.00;99.90;;;;;;5016832;28;20025;-81
2021/09/20 00:57:34;;;;;;;5.78;4.88;;;14.00;99.90;;;;;;5017540;28;20478;-80
2021/09/20 01:00:00;;;;;;;4.95;4.55;;;13.90;99.90;;;;;;5017037;28;20030;-81
2021/09/20 01:02:26;;;;;;;6.00;4.35;;;13.90;99.90;;;;;;5018518;28;20026;-81
2021/09/20 01:04:51;;;;;;;5.30;4.80;;;13.90;99.90;;;;;;5017723;28;20029;-81
2021/09/20 01:07:17;;;;;;;6.28;4.57;;;13.90;99.90;;;;;;5017174;28;20033;-81
2021/09/20 01:09:44;;;;;;;5.50;4.30;;;13.90;99.90;;;;;;5017848;28;20026;-81
2021/09/20 01:12:10;;;;;;;5.40;4.90;;;13.90;99.90;;;;;;5017396;28;20562;-80
2021/09/20 01:14:36;;;;;;;5.35;4.85;;;13.90;99.90;;;;;;5017668;28;20030;-80
2021/09/20 01:17:03;;;;;;;4.68;4.28;;;13.80;99.90;;;;;;5015576;28;20014;-80
2021/09/20 01:19:29;;;;;;;4.88;4.18;;;13.80;99.90;;;;;;5019237;28;20054;-81
2021/09/20 01:22:00;;;;;;;5.07;4.68;;;13.70;99.90;;;;;;5017210;28;20030;-81
2021/09/20 01:24:26;;;;;;;5.18;4.65;;;13.80;99.90;;;;;;5017750;28;20125;-80
2021/09/20 01:26:58;;;;;;;5.30;4.80;;;13.70;99.90;;;;;;5017801;28;20145;-80
2021/09/20 01:29:24;;;;;;;5.28;4.78;;;13.70;99.90;;;;;;5017926;28;20025;-81
2021/09/20 01:31:49;;;;;;;5.35;4.88;;;13.80;99.90;;;;;;5019362;28;20049;-81
2021/09/20 01:34:15;;;;;;;4.95;4.55;;;13.80;99.90;;;;;;5017941;28;20089;-81
2021/09/20 01:36:40;;;;;;;7.05;5.07;;;13.70;99.90;;;;;;5018829;28;20500;-81
2021/09/20 01:39:25;;;;;;;5.32;4.82;;;13.70;99.90;;;;;;5019714;28;20056;-80
2021/09/20 01:41:51;;;;;;;6.90;5.30;;;13.80;99.90;;;;;;5017229;28;20035;-80
2021/09/20 01:44:17;;;;;;;6.05;5.45;;;13.70;99.90;;;;;;5016996;28;20446;-80
2021/09/20 01:46:47;;;;;;;5.47;4.95;;;13.80;99.90;;;;;;5018242;28;20030;-80
2021/09/20 01:49:14;;;;;;;6.13;5.53;;;13.80;99.90;;;;;;5015571;28;20025;-80
2021/09/20 01:51:40;;;;;;;9.48;4.45;;;13.70;99.90;;;;;;5013068;28;20405;-81
2021/09/20 01:54:06;;;;;;;6.85;5.25;;;13.70;99.90;;;;;;5014846;28;20485;-80
2021/09/20 01:56:32;;;;;;;6.13;5.32;;;13.80;99.90;;;;;;5014933;28;20048;-80
2021/09/20 01:58:59;;;;;;;8.85;5.20;;;13.90;99.90;;;;;;5015118;28;20029;-80
2021/09/20 02:01:25;;;;;;;5.97;5.38;;;13.90;99.90;;;;;;5014862;28;20112;-81
2021/09/20 02:03:51;;;;;;;5.72;5.22;;;13.80;99.90;;;;;;5016080;28;20174;-80
2021/09/20 02:06:17;;;;;;;5.63;5.13;;;13.80;99.90;;;;;;5017507;28;20022;-80
2021/09/20 02:08:43;;;;;;;6.25;5.30;;;13.90;99.90;;;;;;5017540;28;20024;-80
2021/09/20 02:11:09;;;;;;;5.75;5.25;;;13.80;99.90;;;;;;5018508;28;20085;-81
2021/09/20 02:13:34;;;;;;;6.45;5.40;;;13.70;99.90;;;;;;5017707;28;20026;-79
2021/09/20 02:16:01;;;;;;;6.75;5.20;;;13.70;99.90;;;;;;5016789;28;20030;-80
2021/09/20 02:18:27;;;;;;;6.72;5.18;;;13.60;99.90;;;;;;5014955;28;20061;-80
2021/09/20 02:20:53;;;;;;;5.28;4.78;;;13.70;99.90;;;;;;5015526;28;20029;-81
2021/09/20 02:23:18;;;;;;;5.43;4.93;;;13.70;99.90;;;;;;5015404;28;20022;-79
2021/09/20 02:25:44;;;;;;;6.10;5.55;;;13.90;99.90;;;;;;5018236;28;20030;-81
2021/09/20 02:28:10;;;;;;;5.82;4.97;;;13.90;99.90;;;;;;5018228;28;20544;-80
2021/09/20 02:30:36;;;;;;;5.80;5.30;;;14.00;99.90;;;;;;5015982;28;20060;-81
2021/09/20 02:33:02;;;;;;;6.10;5.60;;;14.00;99.90;;;;;;5017060;28;20022;-80
2021/09/20 02:35:28;;;;;;;5.90;5.40;;;13.90;99.90;;;;;;5017332;28;20022;-80
2021/09/20 02:37:53;;;;;;;5.75;5.25;;;13.70;99.90;;;;;;5021193;28;20028;-81
2021/09/20 02:40:19;;;;;;;6.03;5.47;;;13.70;99.90;;;;;;5021040;28;20442;-81
2021/09/20 02:42:45;;;;;;;6.40;5.80;;;13.60;99.90;;;;;;5021434;28;20033;-80
2021/09/20 02:45:13;;;;;;;6.30;5.70;;;13.50;99.90;;;;;;5021158;28;20084;-80
2021/09/20 02:47:39;;;;;;;6.70;5.43;;;13.50;99.90;;;;;;5020761;28;20029;-80
2021/09/20 02:50:07;;;;;;;6.20;5.60;;;13.50;99.90;;;;;;5021421;28;20030;-81
2021/09/20 02:52:32;;;;;;;6.40;5.80;;;13.40;99.90;;;;;;5020112;28;20022;-81
2021/09/20 02:54:58;;;;;;;5.88;4.90;;;13.40;99.90;;;;;;5022074;28;20425;-80
2021/09/20 02:57:23;;;;;;;5.65;5.07;;;13.40;99.90;;;;;;5020625;28;20022;-81
2021/09/20 02:59:49;;;;;;;5.43;4.95;;;13.40;99.90;;;;;;5020957;28;20370;-81
2021/09/20 03:02:15;;;;;;;6.15;5.65;;;13.40;99.90;;;;;;5022481;28;20041;-80
2021/09/20 03:04:41;;;;;;;7.13;5.95;;;13.40;99.90;;;;;;5020638;28;20037;-81
2021/09/20 03:07:06;;;;;;;6.25;5.68;;;13.30;99.90;;;;;;5020154;28;20380;-81
2021/09/20 03:09:32;;;;;;;6.55;5.95;;;13.40;99.90;;;;;;5020977;28;20036;-81
2021/09/20 03:11:58;;;;;;;6.75;5.78;;;13.40;99.90;;;;;;5021080;28;20056;-80
2021/09/20 03:14:24;;;;;;;6.13;5.63;;;13.40;99.90;;;;;;5021046;28;20049;-81
2021/09/20 03:16:49;;;;;;;6.78;5.60;;;13.40;99.90;;;;;;5017563;28;20033;-80
2021/09/20 03:19:15;;;;;;;6.40;5.50;;;13.40;99.90;;;;;;5019870;28;20037;-81
2021/09/20 03:21:40;;;;;;;6.15;5.55;;;13.40;99.90;;;;;;5020559;28;20053;-81
2021/09/20 03:24:06;;;;;;;5.88;5.38;;;13.40;99.90;;;;;;5020665;28;20022;-80
2021/09/20 03:26:32;;;;;;;6.07;5.47;;;13.40;99.90;;;;;;5007256;28;20034;-80
2021/09/20 03:28:57;;;;;;;7.28;6.07;;;13.30;99.90;;;;;;5020129;28;20022;-80
2021/09/20 03:31:23;;;;;;;7.00;6.40;;;13.30;99.90;;;;;;5019612;28;20065;-80
2021/09/20 03:33:48;;;;;;;6.60;6.00;;;13.30;99.90;;;;;;5021076;28;20141;-80
2021/09/20 03:36:14;;;;;;;6.00;5.50;;;13.30;99.90;;;;;;5019950;28;20022;-80
2021/09/20 03:38:40;;;;;;;6.65;6.00;;;13.30;99.90;;;;;;5053275;28;20049;-81
2021/09/20 03:41:05;;;;;;;7.88;5.95;;;13.30;99.90;;;;;;5019074;28;20048;-80
2021/09/20 03:43:31;;;;;;;6.07;5.47;;;13.30;99.90;;;;;;5020809;28;20112;-81
2021/09/20 03:45:57;;;;;;;6.43;5.82;;;13.30;99.90;;;;;;5052796;28;20057;-80
2021/09/20 03:48:22;;;;;;;6.97;5.88;;;13.30;99.90;;;;;;5021524;28;20053;-81
2021/09/20 03:50:48;;;;;;;7.60;5.43;;;13.40;99.90;;;;;;5051835;28;20030;-80
2021/09/20 03:53:13;;;;;;;7.13;6.43;;;13.30;99.90;;;;;;5052375;28;20081;-80
2021/09/20 03:55:39;;;;;;;6.30;5.70;;;13.30;99.90;;;;;;5052716;28;20030;-80
2021/09/20 03:58:04;;;;;;;6.07;5.47;;;13.30;99.90;;;;;;5051864;28;20319;-80
2021/09/20 04:00:30;;;;;;;6.97;6.28;;;13.30;99.90;;;;;;5019483;28;20048;-81
2021/09/20 04:02:55;;;;;;;8.57;6.07;;;13.30;99.90;;;;;;5019682;28;20048;-81
2021/09/20 04:05:21;;;;;;;9.07;7.00;;;13.30;99.90;;;;;;5019746;28;20033;-81
2021/09/20 04:07:47;;;;;;;8.90;6.00;;;13.30;99.90;;;;;;5020196;28;20080;-82
2021/09/20 04:10:14;;;;;;;6.93;5.90;;;13.40;99.90;;;;;;5020036;28;20072;-80
2021/09/20 04:12:40;;;;;;;6.80;6.10;;;13.40;99.90;;;;;;5020445;28;20025;-81
2021/09/20 04:15:07;;;;;;;6.32;5.70;;;13.60;99.90;;;;;;5018982;28;20025;-81
2021/09/20 04:17:32;;;;;;;7.70;5.15;;;13.60;99.90;;;;;;5015331;28;20085;-81
2021/09/20 04:19:58;;;;;;;6.20;5.60;;;13.60;99.90;;;;;;5019915;28;20088;-80
2021/09/20 04:22:23;;;;;;;5.78;5.15;;;13.60;99.90;;;;;;5020083;28;20025;-81
2021/09/20 04:24:49;;;;;;;6.93;5.82;;;13.60;99.90;;;;;;5018645;28;20030;-80
2021/09/20 04:27:15;;;;;;;6.80;6.20;;;13.50;99.90;;;;;;5019160;28;20085;-81
2021/09/20 04:29:41;;;;;;;6.35;5.75;;;13.50;99.90;;;;;;5018052;28;20030;-80
2021/09/20 04:32:07;;;;;;;8.68;6.20;;;13.40;99.90;;;;;;5019574;28;20034;-81
2021/09/20 04:34:33;;;;;;;6.90;6.07;;;13.50;99.90;;;;;;5019694;28;20101;-80
2021/09/20 04:36:59;;;;;;;7.07;6.38;;;13.50;99.90;;;;;;5019725;28;20071;-81
2021/09/20 04:39:25;;;;;;;6.30;5.70;;;13.60;99.90;;;;;;5019908;28;20421;-79
2021/09/20 04:41:51;;;;;;;7.43;6.63;;;13.60;99.90;;;;;;5017876;28;20041;-81
2021/09/20 04:44:16;;;;;;;7.00;6.22;;;13.60;99.90;;;;;;5018071;28;20404;-80
2021/09/20 04:46:42;;;;;;;6.75;6.00;;;13.70;99.90;;;;;;5019274;28;20524;-81
2021/09/20 04:49:07;;;;;;;7.22;6.35;;;13.60;99.90;;;;;;5043027;28;20033;-79
2021/09/20 04:51:33;;;;;;;6.40;5.80;;;13.60;99.90;;;;;;5014330;28;20486;-82
2021/09/20 04:53:58;;;;;;;7.35;5.82;;;13.70;99.90;;;;;;5019166;28;20029;-79
2021/09/20 04:56:24;;;;;;;6.45;5.80;;;13.70;99.90;;;;;;5018392;28;20034;-81
2021/09/20 04:58:50;;;;;;;7.97;6.35;;;13.70;99.90;;;;;;5018515;28;20404;-81
2021/09/20 05:01:16;;;;;;;6.38;5.80;;;13.80;99.90;;;;;;5010896;28;20152;-80
2021/09/20 05:03:41;;;;;;;6.55;5.60;;;13.90;99.90;;;;;;5016818;28;20482;-80
2021/09/20 05:06:07;;;;;;;11.45;6.70;;;13.90;99.90;;;;;;5014195;28;20501;-81
2021/09/20 05:08:32;;;;;;;7.03;6.32;;;13.80;99.90;;;;;;5013660;28;20551;-78
2021/09/20 05:10:59;;;;;;;7.00;6.30;;;13.80;99.90;;;;;;5015606;28;20049;-80
2021/09/20 05:13:25;;;;;;;8.35;6.40;;;13.70;99.90;;;;;;5014739;28;20026;-80
2021/09/20 05:15:50;;;;;;;6.32;5.72;;;13.70;99.90;;;;;;5016240;28;20046;-80
2021/09/20 05:18:16;;;;;;;7.88;5.88;;;13.70;99.90;;;;;;5018040;28;20525;-80
2021/09/20 05:20:41;;;;;;;6.90;6.15;;;13.70;99.90;;;;;;5017573;28;20262;-80
2021/09/20 05:23:07;;;;;;;6.90;5.97;;;13.80;99.90;;;;;;5016856;28;20033;-79
2021/09/20 05:25:33;;;;;;;7.05;6.35;;;13.80;99.90;;;;;;5017174;28;20029;-80
2021/09/20 05:27:59;;;;;;;8.70;6.13;;;13.80;99.90;;;;;;5018843;28;20022;-79
2021/09/20 05:30:25;;;;;;;6.53;5.93;;;13.90;99.90;;;;;;5017374;28;20038;-80
2021/09/20 05:32:51;;;;;;;6.82;5.88;;;13.90;99.90;;;;;;5018511;28;20022;-80
2021/09/20 05:35:16;;;;;;;6.72;6.13;;;13.90;99.90;;;;;;5018318;28;20501;-81
2021/09/20 05:37:45;;;;;;;7.15;6.32;;;13.90;99.90;;;;;;5018313;28;20028;-80
2021/09/20 05:40:11;;;;;;;6.93;6.32;;;13.90;99.90;;;;;;5018468;28;20028;-80
2021/09/20 05:42:37;;;;;;;6.30;5.70;;;14.00;99.90;;;;;;5016318;28;20472;-81
2021/09/20 05:45:03;;;;;;;13.43;7.03;;;13.90;99.90;;;;;;5017944;28;20030;-80
2021/09/20 05:47:29;;;;;;;7.35;6.43;;;14.00;99.90;;;;;;5019025;28;20061;-79
2021/09/20 05:49:54;;;;;;;9.73;6.00;;;14.20;99.90;;;;;;5016082;28;20069;-80
2021/09/20 05:52:22;;;;;;;9.98;6.07;;;14.40;99.90;;;;;;5016546;28;20367;-80
2021/09/20 05:54:51;;;;;;;8.38;5.93;;;14.40;99.90;;;;;;5019556;28;20018;-79
2021/09/20 05:57:17;;;;;;;7.45;6.57;;;14.40;99.90;;;;;;5007473;28;20022;-81
2021/09/20 05:59:43;;;;;;;9.35;6.78;;;14.40;99.90;;;;;;5019031;28;20030;-82
2021/09/20 06:02:08;;;;;;;8.07;5.28;;;14.30;99.90;;;;;;5019266;28;20057;-79
2021/09/20 06:04:34;;;;;;;8.18;6.00;;;14.30;99.90;;;;;;5018731;28;20029;-80
2021/09/20 06:07:00;;;;;;;9.27;6.20;;;14.30;99.90;;;;;;5017919;28;20421;-81
2021/09/20 06:09:25;;;;;;;7.25;6.18;;;14.30;99.90;;;;;;5017458;28;20026;-80
2021/09/20 06:11:51;;;;;;;9.82;6.65;;;14.40;99.90;;;;;;5017372;28;20029;-80
2021/09/20 06:14:16;;;;;;;7.80;5.60;;;14.40;99.90;;;;;;5018016;28;20025;-80
2021/09/20 06:16:42;;;;;;;7.35;6.35;;;14.50;99.90;;;;;;5016697;28;20026;-80
2021/09/20 06:19:08;;;;;;;6.68;6.07;;;14.60;99.90;;;;;;5017725;28;20054;-80
2021/09/20 06:21:33;;;;;;;7.20;6.50;;;14.50;99.90;;;;;;5017296;28;20375;-80
2021/09/20 06:23:59;;;;;;;6.40;5.78;;;14.50;99.90;;;;;;5017809;28;20057;-81
2021/09/20 06:26:25;;;;;;;10.25;6.53;;;14.40;99.90;;;;;;5041143;28;20049;-79
2021/09/20 06:28:50;;;;;;;6.80;6.20;;;14.40;99.90;;;;;;5016350;28;20105;-79
2021/09/20 06:31:16;;;;;;;7.80;6.88;;;14.50;99.90;;;;;;5016256;28;20100;-81
2021/09/20 06:33:41;;;;;;;8.38;6.40;;;14.50;99.90;;;;;;5017450;28;20488;-80
2021/09/20 06:36:07;;;;;;;8.85;6.95;;;14.60;99.90;;;;;;5015282;28;20030;-80
2021/09/20 06:38:33;;;;;;;7.65;6.72;;;14.70;99.90;;;;;;5016018;28;20338;-80
2021/09/20 06:40:59;;;;;;;9.52;6.15;;;14.80;99.90;;;;;;5017883;28;20243;-79
2021/09/20 06:43:26;;;;;;;7.10;6.40;;;14.80;99.90;;;;;;5014360;28;20033;-81
2021/09/20 06:45:52;;;;;;;7.32;6.63;;;14.90;99.90;;;;;;5013208;28;20025;-79
2021/09/20 06:48:18;;;;;;;8.30;6.93;;;14.80;99.90;;;;;;5012744;28;20033;-79
2021/09/20 06:50:43;;;;;;;7.85;7.05;;;14.80;99.90;;;;;;5009466;28;20394;-80
2021/09/20 06:53:09;;;;;;;7.07;6.25;;;14.70;99.90;;;;;;5004276;28;20064;-78
2021/09/20 06:55:34;;;;;;;8.45;7.00;;;14.70;99.90;;;;;;5013335;28;20490;-78
2021/09/20 06:58:00;;;;;;;8.02;7.22;;;14.80;99.90;;;;;;5012512;28;20593;-79
2021/09/20 07:00:27;;;;;;;7.93;7.13;;;14.80;99.90;;;;;;5005213;28;20510;-79
2021/09/20 07:02:53;;;;;;;8.48;7.00;;;14.80;99.90;;;;;;5014229;28;20053;-79
2021/09/20 07:05:19;;;;;;;10.18;7.47;;;14.90;99.90;;;;;;5013801;28;20026;-79
2021/09/20 07:07:44;;;;;;;13.68;7.90;;;15.00;99.90;;;;;;5015604;28;20033;-79
2021/09/20 07:10:14;;;;;;;7.80;7.03;;;15.00;99.90;;;;;;5013739;28;20022;-79
2021/09/20 07:12:41;;;;;;;7.85;6.78;;;15.00;99.90;;;;;;5008905;28;20057;-80
2021/09/20 07:15:08;;;;;;;7.25;6.55;;;15.10;99.90;;;;;;5012986;28;20084;-80
2021/09/20 07:17:34;;;;;;;8.10;6.85;;;15.10;99.90;;;;;;5010002;28;20058;-80
2021/09/20 07:20:00;;;;;;;7.20;6.50;;;15.20;99.90;;;;;;5028567;28;20030;-79
2021/09/20 07:22:25;;;;;;;7.93;6.53;;;15.10;99.90;;;;;;5036087;28;20030;-83
2021/09/20 07:24:51;;;;;;;8.00;7.20;;;15.10;99.90;;;;;;5039409;28;20021;-83
2021/09/20 07:27:16;;;;;;;8.68;6.53;;;15.30;99.90;;;;;;5040284;28;20022;-83
2021/09/20 07:29:42;;;;;;;7.18;6.47;;;15.30;99.90;;;;;;5040135;28;20037;-85
2021/09/20 07:32:08;;;;;;;7.72;6.55;;;15.40;99.90;;;;;;5039047;28;20046;-83
2021/09/20 07:34:33;;;;;;;7.00;6.30;;;15.20;99.90;;;;;;5039716;28;20022;-84
2021/09/20 07:36:59;;;;;;;9.65;6.90;;;15.10;99.90;;;;;;5040039;28;20045;-84
2021/09/20 07:39:24;;;;;;;8.55;6.82;;;15.30;99.90;;;;;;5035398;28;20041;-83
2021/09/20 07:41:50;;;;;;;7.93;7.07;;;15.50;99.90;;;;;;5018042;28;20058;-82
2021/09/20 07:44:16;;;;;;;7.90;6.95;;;15.60;99.90;;;;;;5016408;28;20474;-82
2021/09/20 07:46:41;;;;;;;20.63;6.80;;;15.70;99.90;;;;;;5017416;28;20018;-84
2021/09/20 07:49:07;;;;;;;9.00;7.75;;;15.70;99.90;;;;;;5017958;28;20032;-82
2021/09/20 07:51:32;;;;;;;8.90;7.43;;;15.70;99.90;;;;;;5017759;28;20144;-81
2021/09/20 07:53:58;;;;;;;8.40;6.97;;;15.80;99.90;;;;;;5017742;28;20022;-83
2021/09/20 07:56:24;;;;;;;10.30;6.90;;;15.90;99.90;;;;;;5017777;28;20029;-83
2021/09/20 07:58:49;;;;;;;8.05;7.28;;;15.90;99.90;;;;;;5017222;28;20330;-82
2021/09/20 08:01:15;;;;;;;8.43;6.90;;;15.90;99.90;;;;;;5015333;28;20454;-82
2021/09/20 08:03:40;;;;;;;8.68;7.78;;;15.70;99.90;;;;;;5025195;28;20028;-82
2021/09/20 08:06:07;;;;;;;9.40;8.52;;;15.80;99.90;;;;;;5030783;28;20034;-83
2021/09/20 08:08:33;;;;;;;9.80;8.50;;;15.80;99.90;;;;;;5030137;28;20076;-83
2021/09/20 08:10:59;;;;;;;10.07;7.80;;;15.80;99.90;;;;;;5025168;28;20082;-82
2021/09/20 08:13:24;;;;;;;9.55;8.60;;;16.10;99.90;;;;;;5017597;28;20119;-82
2021/09/20 08:15:50;;;;;;;16.15;9.38;;;16.30;99.90;;;;;;5016869;28;20030;-84
2021/09/20 08:18:16;;;;;;;11.25;10.05;;;16.30;99.90;;;;;;5016398;28;20036;-82
2021/09/20 08:20:44;;;;;;;9.65;8.63;;;16.10;99.90;;;;;;5027486;28;20096;-82
2021/09/20 08:23:10;;;;;;;10.75;9.65;;;16.30;99.90;;;;;;5018960;28;20089;-83
2021/09/20 08:25:36;;;;;;;15.85;11.15;;;16.50;99.90;;;;;;5027282;28;20034;-83
2021/09/20 08:28:03;;;;;;;11.23;9.98;;;16.40;99.90;;;;;;5025616;28;20032;-82
2021/09/20 08:30:29;;;;;;;15.57;10.88;;;16.30;99.90;;;;;;5020440;28;20464;-83
2021/09/20 08:32:55;;;;;;;10.85;9.60;;;16.30;99.90;;;;;;5018008;28;20029;-82
2021/09/20 08:35:21;;;;;;;11.23;9.80;;;16.60;99.90;;;;;;5016466;28;20072;-82
2021/09/20 08:37:47;;;;;;;12.25;10.32;;;16.60;99.90;;;;;;5016782;28;20025;-83
2021/09/20 08:40:14;;;;;;;13.15;9.55;;;16.70;99.90;;;;;;5016488;28;20078;-84
2021/09/20 08:42:41;;;;;;;12.82;9.85;;;16.80;99.90;;;;;;5017002;28;20120;-82
2021/09/20 08:45:10;;;;;;;13.88;10.63;;;16.70;99.90;;;;;;5017780;28;20021;-83
2021/09/20 08:47:40;;;;;;;14.57;11.32;;;16.40;99.90;;;;;;5049427;28;20030;-83
2021/09/20 08:50:06;;;;;;;13.07;11.68;;;16.80;99.90;;;;;;5016822;28;20390;-83
2021/09/20 08:52:31;;;;;;;14.68;12.55;;;17.00;99.90;;;;;;5049600;28;20022;-82
2021/09/20 08:54:57;;;;;;;13.75;11.35;;;17.20;99.90;;;;;;5049695;28;20052;-84
2021/09/20 08:57:22;;;;;;;13.65;11.70;;;17.30;99.90;;;;;;5049704;28;20018;-82
2021/09/20 08:59:48;;;;;;;14.68;11.48;;;17.20;99.90;;;;;;5017908;28;20029;-82
2021/09/20 09:02:17;;;;;;;13.38;10.98;;;17.40;99.90;;;;;;5049765;28;20026;-82
2021/09/20 09:04:43;;;;;;;11.13;9.93;;;17.50;99.90;;;;;;5019066;28;20079;-83
2021/09/20 09:07:14;;;;;;;14.73;13.00;;;17.60;99.90;;;;;;5050815;28;20029;-83
2021/09/20 09:09:50;;;;;;;16.65;12.07;;;17.40;99.90;;;;;;5051271;28;20033;-82
2021/09/20 09:12:26;;;;;;;13.32;11.52;;;16.80;99.90;;;;;;5017860;28;20040;-82
2021/09/20 09:14:56;;;;;;;12.70;11.10;;;16.80;99.90;;;;;;5049181;28;20022;-83
2021/09/20 09:17:27;;;;;;;13.68;11.75;;;17.00;99.90;;;;;;5050658;28;20053;-83
2021/09/20 09:20:07;;;;;;;14.68;10.80;;;17.00;99.90;;;;;;5050045;28;20052;-81
2021/09/20 09:22:58;;;;;;;11.95;10.73;;;17.00;99.90;;;;;;5049912;28;20021;-83
2021/09/20 09:25:25;;;;;;;;;;;16.90;99.90;;;;;;5051343;28;20085;-84
2021/09/20 09:27:55;;;;;;;11.55;10.23;;;16.90;99.90;;;;;;5017736;28;19905;-83
2021/09/20 09:30:24;;;;;;;16.70;11.85;;;17.20;99.90;;;;;;5017026;28;20500;-84
2021/09/20 09:33:09;;;;;;;12.02;10.73;;;17.20;99.90;;;;;;5018120;28;20073;-83
2021/09/20 09:35:47;;;;;;;13.38;11.10;;;17.20;99.90;;;;;;5018239;28;20136;-83
2021/09/20 09:38:12;;;;;;;12.27;11.10;;;17.40;99.90;;;;;;5050096;28;20041;-83
2021/09/20 09:40:54;;;;;;;11.95;10.75;;;17.30;99.90;;;;;;5017848;28;20038;-82
2021/09/20 09:43:35;;;;;;;14.60;11.15;;;17.40;99.90;;;;;;5050134;28;20508;-81
2021/09/20 09:46:20;;;;;;;11.27;10.00;;;17.40;99.90;;;;;;5017757;28;20026;-83
2021/09/20 09:48:46;;;;;;;13.73;10.75;;;17.60;99.90;;;;;;5047155;28;20034;-83
2021/09/20 09:51:11;;;;;;;11.13;9.75;;;17.70;99.90;;;;;;5017172;28;20034;-82
2021/09/20 09:53:39;;;;;;;13.68;11.07;;;17.90;99.90;;;;;;5018557;28;20101;-83
2021/09/20 09:56:14;;;;;;;11.93;10.70;;;18.00;99.90;;;;;;5017360;28;20025;-84
2021/09/20 09:59:06;;;;;;;11.52;10.43;;;17.80;99.90;;;;;;5021732;28;20097;-83
2021/09/20 10:01:33;;;;;;;13.27;10.82;;;17.80;99.90;;;;;;5019226;28;20422;-82
2021/09/20 10:04:23;;;;;;;12.02;10.73;;;17.50;99.90;;;;;;5019969;28;20037;-83
2021/09/20 10:06:54;;;;;;;12.80;11.37;;;17.40;99.90;;;;;;5016662;28;20391;-83
2021/09/20 10:09:24;;;;;;;;;;;17.50;99.90;;;;;;5018947;28;20101;-83
2021/09/20 10:11:51;;;;;;;12.93;11.63;;;17.60;99.90;;;;;;5016019;28;19912;-83
2021/09/20 10:14:19;;;;;;;14.73;12.02;;;17.30;99.90;;;;;;5017638;28;20114;-84
2021/09/20 10:16:48;;;;;;;14.00;10.70;;;17.40;99.90;;;;;;5018898;28;20088;-83
2021/09/20 10:19:14;;;;;;;13.27;11.63;;;17.40;99.90;;;;;;5017109;28;20338;-83
2021/09/20 10:21:40;;;;;;;13.30;12.02;;;17.60;99.90;;;;;;5018659;28;20029;-82
2021/09/20 10:24:05;;;;;;;14.15;12.38;;;17.70;99.90;;;;;;5019242;28;20057;-83
2021/09/20 10:26:34;;;;;;;12.32;11.13;;;17.50;99.90;;;;;;5017911;28;20022;-82
2021/09/20 10:29:04;;;;;;;16.73;12.40;;;17.50;99.90;;;;;;5017599;28;20136;-82
2021/09/20 10:31:33;;;;;;;12.68;10.30;;;17.60;99.90;;;;;;5022380;28;20505;-83
2021/09/20 10:34:20;;;;;;;13.20;11.90;;;17.60;99.90;;;;;;5017701;28;20049;-83
2021/09/20 10:36:52;;;;;;;12.07;10.68;;;17.50;99.90;;;;;;5015662;28;20513;-82
2021/09/20 10:39:18;;;;;;;11.68;10.52;;;17.40;99.90;;;;;;5015542;28;20537;-83
2021/09/20 10:41:44;;;;;;;12.52;11.25;;;17.60;99.90;;;;;;5014959;28;20053;-84
2021/09/20 10:44:11;;;;;;;11.23;9.90;;;17.60;99.90;;;;;;5015172;28;20125;-83
2021/09/20 10:46:41;;;;;;;14.27;10.50;;;17.60;99.90;;;;;;5007763;28;20420;-82
2021/09/20 10:49:21;;;;;;;11.57;10.38;;;17.40;99.90;;;;;;5001972;28;20026;-82
2021/09/20 10:52:01;;;;;;;14.35;10.88;;;17.60;99.90;;;;;;4994602;28;20030;-84
2021/09/20 10:54:27;;;;;;;13.20;10.63;;;17.70;99.90;;;;;;4993648;28;20033;-83
2021/09/20 10:57:15;;;;;;;11.68;10.57;;;17.80;99.90;;;;;;5009394;28;20454;-83
2021/09/20 10:59:41;;;;;;;12.52;11.23;;;17.90;99.90;;;;;;5018682;28;20030;-83
2021/09/20 11:02:17;;;;;;;11.88;10.32;;;17.90;99.90;;;;;;5019305;28;20334;-82
2021/09/20 11:04:43;;;;;;;12.88;11.57;;;18.10;99.90;;;;;;5011863;28;20409;-84
2021/09/20 11:07:20;;;;;;;13.00;11.57;;;18.10;99.90;;;;;;5013566;28;20027;-83
2021/09/20 11:09:51;;;;;;;13.02;11.63;;;18.30;99.90;;;;;;5012631;28;20129;-83
2021/09/20 11:12:22;;;;;;;12.52;11.05;;;18.20;99.90;;;;;;5022003;28;20082;-82
2021/09/20 11:14:58;;;;;;;11.77;10.37;;;18.20;99.90;;;;;;5021884;28;20497;-81
2021/09/20 11:17:41;;;;;;;12.20;10.98;;;18.30;99.90;;;;;;5021829;28;20026;-82
2021/09/20 11:20:15;;;;;;;12.60;11.30;;;18.20;99.90;;;;;;5019421;28;20057;-83
2021/09/20 11:22:41;;;;;;;11.80;10.68;;;18.30;99.90;;;;;;5026861;28;20496;-81
2021/09/20 11:25:13;;;;;;;10.68;9.30;;;18.20;99.90;;;;;;5016565;28;20026;-83
2021/09/20 11:27:47;;;;;;;11.10;9.00;;;18.40;99.90;;;;;;5019962;28;20432;-82
2021/09/20 11:30:17;;;;;;;10.32;9.23;;;18.60;99.90;;;;;;5015318;28;20594;-83
2021/09/20 11:32:55;;;;;;;12.05;9.43;;;18.90;99.90;;;;;;5014284;28;20398;-83
2021/09/20 11:35:22;;;;;;;11.10;9.90;;;19.10;99.90;;;;;;5001181;28;20548;-82
2021/09/20 11:37:49;;;;;;;12.43;11.23;;;19.00;99.90;;;;;;5008647;28;20029;-84
2021/09/20 11:40:34;;;;;;;12.57;10.68;;;19.20;99.90;;;;;;5019713;28;20034;-83
2021/09/20 11:43:05;;;;;;;11.57;10.45;;;19.20;99.90;;;;;;5025090;28;20038;-83
2021/09/20 11:45:33;;;;;;;11.37;10.00;;;18.80;99.90;;;;;;5025994;28;20026;-82
2021/09/20 11:48:02;;;;;;;9.90;8.90;;;19.10;99.90;;;;;;5035243;28;20030;-83
2021/09/20 11:50:29;;;;;;;10.75;9.65;;;19.50;99.90;;;;;;5029330;28;20053;-82
2021/09/20 11:52:57;;;;;;;10.38;9.32;;;19.40;99.90;;;;;;5026548;28;20022;-83
2021/09/20 11:55:28;;;;;;;10.88;9.30;;;18.80;99.90;;;;;;5016053;28;20474;-83
2021/09/20 11:57:56;;;;;;;10.50;9.50;;;18.40;99.90;;;;;;5018182;28;20025;-82
2021/09/20 12:00:25;;;;;;;10.50;9.43;;;18.90;99.90;;;;;;5010906;28;20080;-83
2021/09/20 12:02:53;;;;;;;8.90;8.10;;;19.20;99.90;;;;;;5012226;28;20059;-73
2021/09/20 12:05:34;;;;;;;11.43;7.55;;;19.10;99.90;;;;;;5013130;28;20029;-74
2021/09/20 12:08:11;;;;;;;8.90;8.10;;;19.30;99.90;;;;;;5011086;28;20474;-72
2021/09/20 12:10:46;;;;;;;8.18;7.35;;;19.40;99.90;;;;;;5015444;28;20080;-74
2021/09/20 12:13:15;;;;;;;9.40;7.85;;;19.20;99.90;;;;;;5015982;28;20054;-72
2021/09/20 12:15:44;;;;;;;8.93;8.02;;;19.40;99.90;;;;;;5014261;28;20029;-73
2021/09/20 12:18:14;;;;;;;8.82;8.02;;;19.30;99.90;;;;;;5014459;28;20022;-73
2021/09/20 12:20:55;;;;;;;8.90;8.10;;;19.00;99.90;;;;;;5014891;28;20021;-72
2021/09/20 12:23:22;;;;;;;9.52;8.20;;;19.10;99.90;;;;;;5013739;28;20029;-73
2021/09/20 12:25:56;;;;;;;9.30;7.50;;;19.00;99.90;;;;;;5015596;28;20053;-73
2021/09/20 12:28:37;;;;;;;8.15;7.38;;;18.90;99.90;;;;;;5015071;28;20061;-73
2021/09/20 12:31:37;;;;;;;8.10;7.30;;;19.10;99.90;;;;;;5015183;28;20061;-74
2021/09/20 12:34:10;;;;;;;8.05;7.25;;;19.00;99.90;;;;;;5010982;28;20018;-73
2021/09/20 12:36:37;;;;;;;8.65;7.85;;;19.40;99.90;;;;;;5006164;28;20018;-72
2021/09/20 12:39:09;;;;;;;9.30;8.50;;;19.30;99.90;;;;;;5015853;28;20025;-73
2021/09/20 12:41:42;;;;;;;9.85;8.18;;;19.30;99.90;;;;;;5014224;28;20030;-73
2021/09/20 12:44:08;;;;;;;11.23;8.35;;;19.10;99.90;;;;;;5016932;28;20040;-72
2021/09/20 12:46:36;;;;;;;8.23;7.43;;;19.10;99.90;;;;;;5015806;28;20118;-73